sensor_id;sensor_type;location;lat;lon;timestamp;pressure;altitude;pressure_sealevel;temperature;humidity
17060;BME280;8646;49.716;9.266;2023-08-17T00:02:09;100451.69;;;21.98;83.32
17060;BME280;8646;49.716;9.266;2023-08-17T00:05:12;100453.44;;;21.99;83.28
17060;BME280;8646;49.716;9.266;2023-08-17T00:08:15;100447.41;;;22.05;82.74
17060;BME280;8646;49.716;9.266;2023-08-17T00:11:20;100433.84;;;22.13;83.18
17060;BME280;8646;49.716;9.266;2023-08-17T00:14:23;100435.66;;;22.03;84.71
17060;BME280;8646;49.716;9.266;2023-08-17T00:17:28;100428.41;;;21.91;84.76
17060;BME280;8646;49.716;9.266;2023-08-17T00:20:31;100418.28;;;21.91;84.56
17060;BME280;8646;49.716;9.266;2023-08-17T00:23:34;100411.19;;;21.89;85.42
17060;BME280;8646;49.716;9.266;2023-08-17T00:26:37;100422.19;;;21.89;86.15
17060;BME280;8646;49.716;9.266;2023-08-17T00:29:40;100417.63;;;21.78;86.17
17060;BME280;8646;49.716;9.266;2023-08-17T00:32:44;100418.50;;;21.79;86.19
17060;BME280;8646;49.716;9.266;2023-08-17T00:35:47;100425.47;;;21.83;85.70
17060;BME280;8646;49.716;9.266;2023-08-17T00:38:49;100427.22;;;21.84;85.86
17060;BME280;8646;49.716;9.266;2023-08-17T00:41:52;100432.19;;;21.90;85.41
17060;BME280;8646;49.716;9.266;2023-08-17T00:44:55;100428.41;;;21.91;85.69
17060;BME280;8646;49.716;9.266;2023-08-17T00:48:02;100420.03;;;21.92;84.84
17060;BME280;8646;49.716;9.266;2023-08-17T00:51:07;100429.91;;;21.95;85.10
17060;BME280;8646;49.716;9.266;2023-08-17T00:54:10;100424.41;;;21.95;85.10
17060;BME280;8646;49.716;9.266;2023-08-17T00:57:14;100424.16;;;21.98;84.95
17060;BME280;8646;49.716;9.266;2023-08-17T01:00:16;100420.66;;;21.96;85.21
17060;BME280;8646;49.716;9.266;2023-08-17T01:03:22;100421.03;;;21.91;84.63
17060;BME280;8646;49.716;9.266;2023-08-17T01:06:25;100412.44;;;21.85;84.82
17060;BME280;8646;49.716;9.266;2023-08-17T01:09:28;100412.69;;;21.82;84.67
17060;BME280;8646;49.716;9.266;2023-08-17T01:12:33;100412.13;;;21.78;84.67
17060;BME280;8646;49.716;9.266;2023-08-17T01:15:40;100407.75;;;21.76;85.01
17060;BME280;8646;49.716;9.266;2023-08-17T01:18:47;100399.97;;;21.81;84.22
17060;BME280;8646;49.716;9.266;2023-08-17T01:21:54;100399.66;;;21.84;85.72
17060;BME280;8646;49.716;9.266;2023-08-17T01:25:00;100399.59;;;21.74;86.65
17060;BME280;8646;49.716;9.266;2023-08-17T01:28:04;100397.72;;;21.75;88.01
17060;BME280;8646;49.716;9.266;2023-08-17T01:31:11;100396.06;;;21.62;89.62
17060;BME280;8646;49.716;9.266;2023-08-17T01:34:19;100393.56;;;21.39;90.33
17060;BME280;8646;49.716;9.266;2023-08-17T01:37:28;100383.88;;;21.23;90.61
17060;BME280;8646;49.716;9.266;2023-08-17T01:40:35;100372.72;;;21.25;91.22
17060;BME280;8646;49.716;9.266;2023-08-17T01:43:39;100370.75;;;21.16;91.97
17060;BME280;8646;49.716;9.266;2023-08-17T01:49:46;100377.19;;;20.94;91.67
17060;BME280;8646;49.716;9.266;2023-08-17T01:52:49;100361.84;;;20.91;91.04
17060;BME280;8646;49.716;9.266;2023-08-17T01:55:54;100355.59;;;20.89;90.52
17060;BME280;8646;49.716;9.266;2023-08-17T01:58:56;100357.81;;;20.95;91.07
17060;BME280;8646;49.716;9.266;2023-08-17T02:01:59;100360.22;;;20.89;92.05
17060;BME280;8646;49.716;9.266;2023-08-17T02:05:05;100361.13;;;20.78;91.63
17060;BME280;8646;49.716;9.266;2023-08-17T02:08:08;100351.88;;;20.79;92.06
17060;BME280;8646;49.716;9.266;2023-08-17T02:11:13;100344.13;;;20.73;92.19
17060;BME280;8646;49.716;9.266;2023-08-17T02:14:16;100345.50;;;20.79;92.81
17060;BME280;8646;49.716;9.266;2023-08-17T02:17:19;100342.28;;;20.74;93.60
17060;BME280;8646;49.716;9.266;2023-08-17T02:20:25;100339.00;;;20.69;94.68
17060;BME280;8646;49.716;9.266;2023-08-17T02:23:27;100340.41;;;20.63;95.50
17060;BME280;8646;49.716;9.266;2023-08-17T02:26:31;100342.41;;;20.61;96.12
17060;BME280;8646;49.716;9.266;2023-08-17T02:29:34;100344.44;;;20.48;96.35
17060;BME280;8646;49.716;9.266;2023-08-17T02:32:37;100339.19;;;20.45;96.55
17060;BME280;8646;49.716;9.266;2023-08-17T02:35:40;100338.19;;;20.46;96.72
17060;BME280;8646;49.716;9.266;2023-08-17T02:38:42;100331.31;;;20.51;96.72
17060;BME280;8646;49.716;9.266;2023-08-17T02:41:52;100326.31;;;20.56;96.69
17060;BME280;8646;49.716;9.266;2023-08-17T02:44:55;100335.44;;;20.57;96.42
17060;BME280;8646;49.716;9.266;2023-08-17T02:47:58;100331.28;;;20.63;96.14
17060;BME280;8646;49.716;9.266;2023-08-17T02:51:01;100330.91;;;20.67;96.44
17060;BME280;8646;49.716;9.266;2023-08-17T02:54:04;100333.50;;;20.69;96.51
17060;BME280;8646;49.716;9.266;2023-08-17T02:57:08;100335.38;;;20.68;96.82
17060;BME280;8646;49.716;9.266;2023-08-17T03:00:16;100341.16;;;20.65;97.34
17060;BME280;8646;49.716;9.266;2023-08-17T03:03:19;100348.19;;;20.58;97.17
17060;BME280;8646;49.716;9.266;2023-08-17T03:06:22;100338.78;;;20.61;96.97
17060;BME280;8646;49.716;9.266;2023-08-17T03:09:26;100342.41;;;20.61;97.04
17060;BME280;8646;49.716;9.266;2023-08-17T03:12:30;100338.41;;;20.65;97.84
17060;BME280;8646;49.716;9.266;2023-08-17T03:15:34;100337.44;;;20.55;98.31
17060;BME280;8646;49.716;9.266;2023-08-17T03:18:41;100331.19;;;20.53;98.91
17060;BME280;8646;49.716;9.266;2023-08-17T03:21:46;100338.84;;;20.49;99.25
17060;BME280;8646;49.716;9.266;2023-08-17T03:24:49;100327.22;;;20.46;99.42
17060;BME280;8646;49.716;9.266;2023-08-17T03:27:53;100330.72;;;20.37;99.51
17060;BME280;8646;49.716;9.266;2023-08-17T03:30:56;100330.22;;;20.32;99.41
17060;BME280;8646;49.716;9.266;2023-08-17T03:33:59;100330.31;;;20.30;99.27
17060;BME280;8646;49.716;9.266;2023-08-17T03:37:05;100335.69;;;20.32;98.62
17060;BME280;8646;49.716;9.266;2023-08-17T03:40:08;100325.94;;;20.28;98.44
17060;BME280;8646;49.716;9.266;2023-08-17T03:43:12;100328.97;;;20.25;98.79
17060;BME280;8646;49.716;9.266;2023-08-17T03:46:15;100334.72;;;20.22;98.23
17060;BME280;8646;49.716;9.266;2023-08-17T03:49:24;100326.47;;;20.22;97.59
17060;BME280;8646;49.716;9.266;2023-08-17T03:52:27;100326.75;;;20.18;97.36
17060;BME280;8646;49.716;9.266;2023-08-17T03:55:30;100329.72;;;20.15;96.90
17060;BME280;8646;49.716;9.266;2023-08-17T03:58:34;100338.09;;;20.14;96.95
17060;BME280;8646;49.716;9.266;2023-08-17T04:01:36;100332.84;;;20.11;97.42
17060;BME280;8646;49.716;9.266;2023-08-17T04:04:39;100339.59;;;20.07;97.29
17060;BME280;8646;49.716;9.266;2023-08-17T04:07:42;100343.34;;;20.06;97.17
17060;BME280;8646;49.716;9.266;2023-08-17T04:10:45;100349.72;;;20.17;96.85
17060;BME280;8646;49.716;9.266;2023-08-17T04:13:50;100347.31;;;20.35;98.22
17060;BME280;8646;49.716;9.266;2023-08-17T04:16:52;100348.44;;;20.33;98.91
17060;BME280;8646;49.716;9.266;2023-08-17T04:19:57;100350.19;;;20.23;99.47
17060;BME280;8646;49.716;9.266;2023-08-17T04:23:01;100352.69;;;20.26;98.95
17060;BME280;8646;49.716;9.266;2023-08-17T04:26:03;100352.31;;;20.30;98.72
17060;BME280;8646;49.716;9.266;2023-08-17T04:29:07;100352.81;;;20.35;98.67
17060;BME280;8646;49.716;9.266;2023-08-17T04:32:20;100358.06;;;20.49;98.94
17060;BME280;8646;49.716;9.266;2023-08-17T04:35:23;100359.06;;;20.48;98.86
17060;BME280;8646;49.716;9.266;2023-08-17T04:38:26;100355.44;;;20.59;98.67
17060;BME280;8646;49.716;9.266;2023-08-17T04:41:29;100358.44;;;20.56;98.58
17060;BME280;8646;49.716;9.266;2023-08-17T04:44:33;100357.56;;;20.55;98.75
17060;BME280;8646;49.716;9.266;2023-08-17T04:47:36;100364.22;;;20.42;99.13
17060;BME280;8646;49.716;9.266;2023-08-17T04:50:39;100357.56;;;20.44;98.92
17060;BME280;8646;49.716;9.266;2023-08-17T04:53:41;100365.06;;;20.53;98.44
17060;BME280;8646;49.716;9.266;2023-08-17T04:56:44;100367.28;;;20.60;98.21
17060;BME280;8646;49.716;9.266;2023-08-17T04:59:49;100357.91;;;20.73;97.45
17060;BME280;8646;49.716;9.266;2023-08-17T05:02:51;100362.63;;;20.82;97.01
17060;BME280;8646;49.716;9.266;2023-08-17T05:05:55;100358.13;;;20.81;96.89
17060;BME280;8646;49.716;9.266;2023-08-17T05:09:01;100360.59;;;20.84;96.70
17060;BME280;8646;49.716;9.266;2023-08-17T05:12:08;100363.09;;;20.87;96.30
17060;BME280;8646;49.716;9.266;2023-08-17T05:15:12;100364.97;;;20.87;96.32
17060;BME280;8646;49.716;9.266;2023-08-17T05:18:14;100369.56;;;20.98;95.33
17060;BME280;8646;49.716;9.266;2023-08-17T05:21:17;100362.19;;;20.98;95.49
17060;BME280;8646;49.716;9.266;2023-08-17T05:24:20;100366.06;;;20.95;96.00
17060;BME280;8646;49.716;9.266;2023-08-17T05:27:23;100366.41;;;21.02;95.85
17060;BME280;8646;49.716;9.266;2023-08-17T05:30:27;100370.88;;;21.14;95.47
17060;BME280;8646;49.716;9.266;2023-08-17T05:33:30;100371.59;;;21.27;95.01
17060;BME280;8646;49.716;9.266;2023-08-17T05:36:33;100376.75;;;21.42;94.41
17060;BME280;8646;49.716;9.266;2023-08-17T05:39:37;100378.84;;;21.49;93.18
17060;BME280;8646;49.716;9.266;2023-08-17T05:42:40;100373.53;;;21.57;93.10
17060;BME280;8646;49.716;9.266;2023-08-17T05:45:45;100382.50;;;21.70;92.63
17060;BME280;8646;49.716;9.266;2023-08-17T05:48:50;100375.31;;;21.79;91.96
17060;BME280;8646;49.716;9.266;2023-08-17T05:51:53;100368.63;;;21.82;91.77
17060;BME280;8646;49.716;9.266;2023-08-17T05:54:56;100365.28;;;21.99;91.98
17060;BME280;8646;49.716;9.266;2023-08-17T05:57:59;100364.38;;;22.59;89.86
17060;BME280;8646;49.716;9.266;2023-08-17T06:01:07;100366.50;;;23.15;88.81
17060;BME280;8646;49.716;9.266;2023-08-17T06:04:10;100348.44;;;23.88;86.78
17060;BME280;8646;49.716;9.266;2023-08-17T06:07:13;100350.25;;;24.71;84.15
17060;BME280;8646;49.716;9.266;2023-08-17T06:10:16;100341.63;;;25.37;80.79
17060;BME280;8646;49.716;9.266;2023-08-17T06:13:19;100334.72;;;25.59;77.77
17060;BME280;8646;49.716;9.266;2023-08-17T06:16:26;100343.53;;;25.80;78.27
17060;BME280;8646;49.716;9.266;2023-08-17T06:19:29;100348.66;;;25.67;78.08
17060;BME280;8646;49.716;9.266;2023-08-17T06:22:35;100355.47;;;25.19;78.45
17060;BME280;8646;49.716;9.266;2023-08-17T06:25:38;100351.75;;;24.93;78.58
17060;BME280;8646;49.716;9.266;2023-08-17T06:28:41;100355.28;;;25.38;78.90
17060;BME280;8646;49.716;9.266;2023-08-17T06:31:45;100344.25;;;25.82;77.93
17060;BME280;8646;49.716;9.266;2023-08-17T06:34:50;100339.03;;;26.31;76.64
17060;BME280;8646;49.716;9.266;2023-08-17T06:37:55;100343.75;;;26.88;75.60
17060;BME280;8646;49.716;9.266;2023-08-17T06:40:59;100335.69;;;27.35;73.08
17060;BME280;8646;49.716;9.266;2023-08-17T06:44:05;100328.41;;;27.59;71.94
17060;BME280;8646;49.716;9.266;2023-08-17T06:47:09;100325.13;;;27.71;70.82
17060;BME280;8646;49.716;9.266;2023-08-17T06:50:12;100338.44;;;28.00;70.33
17060;BME280;8646;49.716;9.266;2023-08-17T06:53:17;100336.91;;;27.73;70.18
17060;BME280;8646;49.716;9.266;2023-08-17T06:56:20;100339.84;;;27.15;71.84
17060;BME280;8646;49.716;9.266;2023-08-17T06:59:24;100351.69;;;26.67;74.09
17060;BME280;8646;49.716;9.266;2023-08-17T07:02:28;100354.78;;;26.30;75.31
17060;BME280;8646;49.716;9.266;2023-08-17T07:05:47;100357.19;;;26.25;76.00
17060;BME280;8646;49.716;9.266;2023-08-17T07:08:53;100367.63;;;26.31;75.26
17060;BME280;8646;49.716;9.266;2023-08-17T07:11:56;100357.34;;;26.23;75.31
17060;BME280;8646;49.716;9.266;2023-08-17T07:15:01;100368.53;;;26.40;75.05
17060;BME280;8646;49.716;9.266;2023-08-17T07:18:06;100358.81;;;26.78;74.17
17060;BME280;8646;49.716;9.266;2023-08-17T07:21:08;100364.53;;;26.84;74.61
17060;BME280;8646;49.716;9.266;2023-08-17T07:24:12;100361.50;;;27.04;74.04
17060;BME280;8646;49.716;9.266;2023-08-17T07:27:15;100359.63;;;27.20;74.04
17060;BME280;8646;49.716;9.266;2023-08-17T07:30:18;100361.22;;;27.31;73.97
17060;BME280;8646;49.716;9.266;2023-08-17T07:33:22;100357.03;;;27.19;73.59
17060;BME280;8646;49.716;9.266;2023-08-17T07:36:25;100353.72;;;27.07;73.81
17060;BME280;8646;49.716;9.266;2023-08-17T07:39:32;100346.97;;;27.26;73.76
17060;BME280;8646;49.716;9.266;2023-08-17T07:42:35;100340.38;;;27.27;72.22
17060;BME280;8646;49.716;9.266;2023-08-17T07:45:39;100348.34;;;27.22;72.94
17060;BME280;8646;49.716;9.266;2023-08-17T07:48:56;100344.88;;;27.12;72.88
17060;BME280;8646;49.716;9.266;2023-08-17T07:51:58;100345.81;;;26.86;73.25
17060;BME280;8646;49.716;9.266;2023-08-17T07:55:02;100354.63;;;26.66;73.94
17060;BME280;8646;49.716;9.266;2023-08-17T07:58:05;100353.13;;;26.45;73.88
17060;BME280;8646;49.716;9.266;2023-08-17T08:01:08;100352.91;;;26.31;73.51
17060;BME280;8646;49.716;9.266;2023-08-17T08:04:12;100353.13;;;26.19;72.61
17060;BME280;8646;49.716;9.266;2023-08-17T08:07:15;100355.38;;;26.16;73.10
17060;BME280;8646;49.716;9.266;2023-08-17T08:10:18;100355.44;;;26.24;73.15
17060;BME280;8646;49.716;9.266;2023-08-17T08:13:21;100360.53;;;26.37;71.90
17060;BME280;8646;49.716;9.266;2023-08-17T08:16:23;100357.47;;;26.48;73.37
17060;BME280;8646;49.716;9.266;2023-08-17T08:19:28;100358.88;;;26.52;72.54
17060;BME280;8646;49.716;9.266;2023-08-17T08:22:30;100365.50;;;26.51;72.91
17060;BME280;8646;49.716;9.266;2023-08-17T08:25:33;100363.56;;;26.51;72.64
17060;BME280;8646;49.716;9.266;2023-08-17T08:28:36;100360.78;;;26.51;73.56
17060;BME280;8646;49.716;9.266;2023-08-17T08:31:39;100362.03;;;26.57;73.62
17060;BME280;8646;49.716;9.266;2023-08-17T08:34:43;100354.06;;;26.62;73.17
17060;BME280;8646;49.716;9.266;2023-08-17T08:37:46;100360.31;;;26.64;72.99
17060;BME280;8646;49.716;9.266;2023-08-17T08:40:48;100357.16;;;26.51;72.62
17060;BME280;8646;49.716;9.266;2023-08-17T08:43:51;100355.38;;;26.42;72.40
17060;BME280;8646;49.716;9.266;2023-08-17T08:46:56;100346.19;;;26.41;72.63
17060;BME280;8646;49.716;9.266;2023-08-17T08:50:04;100360.19;;;26.32;72.25
17060;BME280;8646;49.716;9.266;2023-08-17T08:53:10;100357.41;;;26.32;72.46
17060;BME280;8646;49.716;9.266;2023-08-17T08:56:15;100348.81;;;26.43;72.29
17060;BME280;8646;49.716;9.266;2023-08-17T08:59:21;100361.28;;;26.47;72.10
17060;BME280;8646;49.716;9.266;2023-08-17T09:02:26;100348.09;;;26.41;72.12
17060;BME280;8646;49.716;9.266;2023-08-17T09:05:31;100347.38;;;26.39;72.36
17060;BME280;8646;49.716;9.266;2023-08-17T09:08:36;100338.03;;;26.40;72.20
17060;BME280;8646;49.716;9.266;2023-08-17T09:11:38;100338.34;;;26.37;72.44
17060;BME280;8646;49.716;9.266;2023-08-17T09:14:45;100339.38;;;26.36;72.50
17060;BME280;8646;49.716;9.266;2023-08-17T09:17:48;100338.00;;;26.32;72.91
17060;BME280;8646;49.716;9.266;2023-08-17T09:20:52;100346.31;;;26.32;73.17
17060;BME280;8646;49.716;9.266;2023-08-17T09:23:56;100343.56;;;26.40;72.85
17060;BME280;8646;49.716;9.266;2023-08-17T09:27:03;100340.28;;;26.44;72.84
17060;BME280;8646;49.716;9.266;2023-08-17T09:30:12;100337.75;;;26.51;73.26
17060;BME280;8646;49.716;9.266;2023-08-17T09:33:23;100345.34;;;26.49;72.85
17060;BME280;8646;49.716;9.266;2023-08-17T09:36:28;100344.09;;;26.43;73.31
17060;BME280;8646;49.716;9.266;2023-08-17T09:39:31;100342.75;;;26.47;73.06
17060;BME280;8646;49.716;9.266;2023-08-17T09:42:34;100337.41;;;26.62;72.55
17060;BME280;8646;49.716;9.266;2023-08-17T09:45:37;100343.03;;;26.78;72.57
17060;BME280;8646;49.716;9.266;2023-08-17T09:48:43;100336.84;;;27.01;72.22
17060;BME280;8646;49.716;9.266;2023-08-17T09:51:47;100332.88;;;27.11;71.69
17060;BME280;8646;49.716;9.266;2023-08-17T09:54:51;100327.88;;;27.15;71.59
17060;BME280;8646;49.716;9.266;2023-08-17T09:57:57;100326.47;;;27.19;71.59
17060;BME280;8646;49.716;9.266;2023-08-17T10:01:04;100318.31;;;27.25;71.64
17060;BME280;8646;49.716;9.266;2023-08-17T10:04:08;100316.22;;;27.27;71.42
17060;BME280;8646;49.716;9.266;2023-08-17T10:07:18;100313.44;;;27.19;71.33
17060;BME280;8646;49.716;9.266;2023-08-17T10:10:26;100306.84;;;27.12;71.80
17060;BME280;8646;49.716;9.266;2023-08-17T10:13:35;100301.63;;;27.09;71.98
17060;BME280;8646;49.716;9.266;2023-08-17T10:16:44;100299.56;;;27.11;71.99
17060;BME280;8646;49.716;9.266;2023-08-17T10:19:49;100307.19;;;27.09;71.93
17060;BME280;8646;49.716;9.266;2023-08-17T10:23:01;100299.72;;;27.10;72.32
17060;BME280;8646;49.716;9.266;2023-08-17T10:26:10;100313.97;;;27.15;72.47
17060;BME280;8646;49.716;9.266;2023-08-17T10:29:14;100298.19;;;27.15;72.54
17060;BME280;8646;49.716;9.266;2023-08-17T10:32:20;100304.41;;;27.17;72.27
17060;BME280;8646;49.716;9.266;2023-08-17T10:35:24;100291.22;;;27.19;72.31
17060;BME280;8646;49.716;9.266;2023-08-17T10:38:29;100299.72;;;27.18;72.08
17060;BME280;8646;49.716;9.266;2023-08-17T10:41:46;100299.56;;;27.19;72.49
17060;BME280;8646;49.716;9.266;2023-08-17T10:44:49;100292.97;;;27.20;72.44
17060;BME280;8646;49.716;9.266;2023-08-17T10:48:00;100290.91;;;27.22;72.02
17060;BME280;8646;49.716;9.266;2023-08-17T10:51:04;100287.41;;;27.20;72.51
17060;BME280;8646;49.716;9.266;2023-08-17T10:54:08;100293.13;;;27.27;72.32
17060;BME280;8646;49.716;9.266;2023-08-17T10:57:31;100290.72;;;27.32;72.63
17060;BME280;8646;49.716;9.266;2023-08-17T11:00:35;100294.34;;;27.41;72.78
17060;BME280;8646;49.716;9.266;2023-08-17T11:03:39;100283.06;;;27.50;72.62
17060;BME280;8646;49.716;9.266;2023-08-17T11:10:10;100289.66;;;27.73;72.28
17060;BME280;8646;49.716;9.266;2023-08-17T11:13:14;100287.38;;;27.85;72.35
17060;BME280;8646;49.716;9.266;2023-08-17T11:16:18;100285.63;;;27.92;71.62
17060;BME280;8646;49.716;9.266;2023-08-17T11:19:22;100286.47;;;28.01;71.83
17060;BME280;8646;49.716;9.266;2023-08-17T11:22:25;100294.78;;;28.09;71.65
17060;BME280;8646;49.716;9.266;2023-08-17T11:25:37;100282.06;;;28.23;71.55
17060;BME280;8646;49.716;9.266;2023-08-17T11:28:40;100272.47;;;28.33;71.34
17060;BME280;8646;49.716;9.266;2023-08-17T11:31:49;100277.69;;;28.36;70.60
17060;BME280;8646;49.716;9.266;2023-08-17T11:34:52;100274.34;;;28.41;71.14
17060;BME280;8646;49.716;9.266;2023-08-17T11:38:02;100277.94;;;28.50;70.70
17060;BME280;8646;49.716;9.266;2023-08-17T11:41:11;100272.84;;;28.61;70.48
17060;BME280;8646;49.716;9.266;2023-08-17T11:44:18;100261.16;;;28.66;69.51
17060;BME280;8646;49.716;9.266;2023-08-17T11:47:25;100261.56;;;28.55;68.68
17060;BME280;8646;49.716;9.266;2023-08-17T11:50:33;100253.03;;;28.56;68.46
17060;BME280;8646;49.716;9.266;2023-08-17T11:53:40;100253.78;;;28.81;67.30
17060;BME280;8646;49.716;9.266;2023-08-17T11:56:50;100248.78;;;28.99;66.07
17060;BME280;8646;49.716;9.266;2023-08-17T11:59:54;100242.84;;;29.02;66.24
17060;BME280;8646;49.716;9.266;2023-08-17T12:02:57;100242.09;;;29.08;64.82
17060;BME280;8646;49.716;9.266;2023-08-17T12:06:01;100246.69;;;29.01;63.94
17060;BME280;8646;49.716;9.266;2023-08-17T12:09:04;100244.59;;;28.95;64.25
17060;BME280;8646;49.716;9.266;2023-08-17T12:12:09;100245.22;;;29.05;64.75
17060;BME280;8646;49.716;9.266;2023-08-17T12:15:12;100232.63;;;29.17;63.86
17060;BME280;8646;49.716;9.266;2023-08-17T12:18:15;100232.41;;;29.19;64.14
17060;BME280;8646;49.716;9.266;2023-08-17T12:21:19;100225.34;;;29.31;64.44
17060;BME280;8646;49.716;9.266;2023-08-17T12:24:23;100226.88;;;29.34;65.29
17060;BME280;8646;49.716;9.266;2023-08-17T12:27:33;100231.16;;;29.44;63.74
17060;BME280;8646;49.716;9.266;2023-08-17T12:30:36;100233.88;;;29.30;64.59
17060;BME280;8646;49.716;9.266;2023-08-17T12:33:39;100225.91;;;29.27;65.05
17060;BME280;8646;49.716;9.266;2023-08-17T12:36:43;100226.25;;;29.46;65.29
17060;BME280;8646;49.716;9.266;2023-08-17T12:39:46;100226.28;;;29.61;65.03
17060;BME280;8646;49.716;9.266;2023-08-17T12:42:50;100227.75;;;29.72;64.87
17060;BME280;8646;49.716;9.266;2023-08-17T12:45:53;100229.38;;;29.66;64.19
17060;BME280;8646;49.716;9.266;2023-08-17T12:48:56;100244.09;;;29.75;63.15
17060;BME280;8646;49.716;9.266;2023-08-17T12:51:59;100245.13;;;29.59;64.59
17060;BME280;8646;49.716;9.266;2023-08-17T12:55:01;100250.41;;;29.69;63.67
17060;BME280;8646;49.716;9.266;2023-08-17T12:58:09;100238.13;;;29.92;63.13
17060;BME280;8646;49.716;9.266;2023-08-17T13:01:11;100235.84;;;29.96;63.23
17060;BME280;8646;49.716;9.266;2023-08-17T13:04:16;100243.16;;;29.97;62.71
17060;BME280;8646;49.716;9.266;2023-08-17T13:07:18;100240.91;;;29.92;63.39
17060;BME280;8646;49.716;9.266;2023-08-17T13:10:21;100235.00;;;29.95;62.96
17060;BME280;8646;49.716;9.266;2023-08-17T13:13:25;100234.22;;;30.02;63.83
17060;BME280;8646;49.716;9.266;2023-08-17T13:16:28;100232.09;;;30.18;63.75
17060;BME280;8646;49.716;9.266;2023-08-17T13:19:31;100219.69;;;30.21;61.81
17060;BME280;8646;49.716;9.266;2023-08-17T13:22:34;100224.59;;;30.04;62.35
17060;BME280;8646;49.716;9.266;2023-08-17T13:25:36;100229.13;;;30.05;62.73
17060;BME280;8646;49.716;9.266;2023-08-17T13:28:41;100231.91;;;30.05;62.29
17060;BME280;8646;49.716;9.266;2023-08-17T13:31:43;100228.41;;;29.88;64.20
17060;BME280;8646;49.716;9.266;2023-08-17T13:34:46;100230.94;;;29.83;64.68
17060;BME280;8646;49.716;9.266;2023-08-17T13:37:51;100230.94;;;29.83;64.83
17060;BME280;8646;49.716;9.266;2023-08-17T13:40:55;100226.19;;;29.84;64.50
17060;BME280;8646;49.716;9.266;2023-08-17T13:43:59;100233.31;;;29.72;64.23
17060;BME280;8646;49.716;9.266;2023-08-17T13:47:04;100231.47;;;29.64;64.54
17060;BME280;8646;49.716;9.266;2023-08-17T13:50:07;100231.19;;;29.59;64.78
17060;BME280;8646;49.716;9.266;2023-08-17T13:53:10;100239.75;;;29.72;64.00
17060;BME280;8646;49.716;9.266;2023-08-17T13:56:13;100241.09;;;29.76;63.83
17060;BME280;8646;49.716;9.266;2023-08-17T13:59:17;100250.38;;;29.91;62.28
17060;BME280;8646;49.716;9.266;2023-08-17T14:02:20;100246.22;;;29.87;61.84
17060;BME280;8646;49.716;9.266;2023-08-17T14:05:26;100241.25;;;29.98;62.42
17060;BME280;8646;49.716;9.266;2023-08-17T14:08:28;100235.38;;;30.07;61.28
17060;BME280;8646;49.716;9.266;2023-08-17T14:11:34;100230.84;;;30.06;60.07
17060;BME280;8646;49.716;9.266;2023-08-17T14:14:38;100203.41;;;30.10;59.91
17060;BME280;8646;49.716;9.266;2023-08-17T14:17:43;100192.38;;;30.02;60.50
17060;BME280;8646;49.716;9.266;2023-08-17T14:20:49;100176.69;;;30.01;59.26
17060;BME280;8646;49.716;9.266;2023-08-17T14:23:52;100179.00;;;29.82;60.13
17060;BME280;8646;49.716;9.266;2023-08-17T14:26:55;100174.16;;;29.76;59.30
17060;BME280;8646;49.716;9.266;2023-08-17T14:30:05;100166.94;;;29.52;60.77
17060;BME280;8646;49.716;9.266;2023-08-17T14:33:08;100167.72;;;29.61;59.96
17060;BME280;8646;49.716;9.266;2023-08-17T14:36:11;100157.22;;;29.34;61.00
17060;BME280;8646;49.716;9.266;2023-08-17T14:39:20;100159.63;;;29.37;61.42
17060;BME280;8646;49.716;9.266;2023-08-17T14:42:23;100148.91;;;29.48;61.50
17060;BME280;8646;49.716;9.266;2023-08-17T14:45:34;100144.69;;;29.67;61.10
17060;BME280;8646;49.716;9.266;2023-08-17T14:48:37;100129.53;;;29.76;60.58
17060;BME280;8646;49.716;9.266;2023-08-17T14:51:40;100120.81;;;29.79;60.04
17060;BME280;8646;49.716;9.266;2023-08-17T14:54:44;100108.22;;;29.83;61.04
17060;BME280;8646;49.716;9.266;2023-08-17T14:57:46;100109.34;;;30.04;60.05
17060;BME280;8646;49.716;9.266;2023-08-17T15:00:54;100105.63;;;30.18;60.21
17060;BME280;8646;49.716;9.266;2023-08-17T15:03:56;100091.00;;;30.30;60.01
17060;BME280;8646;49.716;9.266;2023-08-17T15:06:59;100092.59;;;30.40;59.26
17060;BME280;8646;49.716;9.266;2023-08-17T15:10:03;100096.44;;;30.39;60.44
17060;BME280;8646;49.716;9.266;2023-08-17T15:13:06;100102.66;;;30.55;59.88
17060;BME280;8646;49.716;9.266;2023-08-17T15:16:14;100097.56;;;30.65;59.66
17060;BME280;8646;49.716;9.266;2023-08-17T15:19:16;100098.00;;;30.62;59.29
17060;BME280;8646;49.716;9.266;2023-08-17T15:22:40;100103.97;;;30.59;58.69
17060;BME280;8646;49.716;9.266;2023-08-17T15:25:43;100111.53;;;30.44;59.33
17060;BME280;8646;49.716;9.266;2023-08-17T15:28:45;100109.72;;;30.37;59.78
17060;BME280;8646;49.716;9.266;2023-08-17T15:31:50;100105.50;;;30.26;59.60
17060;BME280;8646;49.716;9.266;2023-08-17T15:34:52;100106.69;;;30.17;59.68
17060;BME280;8646;49.716;9.266;2023-08-17T15:37:57;100110.97;;;30.13;60.77
17060;BME280;8646;49.716;9.266;2023-08-17T15:41:01;100118.31;;;29.99;60.24
17060;BME280;8646;49.716;9.266;2023-08-17T15:44:05;100116.84;;;29.88;60.95
17060;BME280;8646;49.716;9.266;2023-08-17T15:47:09;100125.03;;;29.90;60.55
17060;BME280;8646;49.716;9.266;2023-08-17T15:50:12;100121.47;;;29.81;60.13
17060;BME280;8646;49.716;9.266;2023-08-17T15:53:15;100118.13;;;29.71;60.68
17060;BME280;8646;49.716;9.266;2023-08-17T15:56:17;100121.59;;;29.73;60.54
17060;BME280;8646;49.716;9.266;2023-08-17T15:59:20;100110.44;;;29.73;60.43
17060;BME280;8646;49.716;9.266;2023-08-17T16:02:24;100118.50;;;29.68;61.40
17060;BME280;8646;49.716;9.266;2023-08-17T16:05:28;100125.69;;;29.77;60.74
17060;BME280;8646;49.716;9.266;2023-08-17T16:08:31;100132.94;;;29.57;61.91
17060;BME280;8646;49.716;9.266;2023-08-17T16:11:49;100136.19;;;29.60;61.83
17060;BME280;8646;49.716;9.266;2023-08-17T16:14:55;100136.50;;;29.51;62.25
17060;BME280;8646;49.716;9.266;2023-08-17T16:17:59;100136.88;;;29.48;62.53
17060;BME280;8646;49.716;9.266;2023-08-17T16:21:02;100128.25;;;29.43;63.66
17060;BME280;8646;49.716;9.266;2023-08-17T16:24:05;100133.13;;;29.41;63.48